Time;durP1;ratioP1;P1;durP2;ratioP2;P2;SDS_P1;SDS_P2;PMS_P1;PMS_P2;Temp;Humidity;BMP_temperature;BMP_pressure;BME280_temperature;BME280_humidity;BME280_pressure;Samples;Min_cycle;Max_cycle;Signal;HPM_P1;HPM_P2
2022/04/20 00:00:08;;;;;;;7.97;5.83;;;14.20;99.90;;;;;;1039816;28;20492;-69
2022/04/20 00:00:38;;;;;;;6.38;5.15;;;14.20;99.90;;;;;;1040011;28;20480;-68
2022/04/20 00:01:09;;;;;;;6.13;5.13;;;14.20;99.90;;;;;;1040165;28;20028;-70
2022/04/20 00:01:42;;;;;;;6.23;5.23;;;14.20;99.90;;;;;;1040213;28;20009;-69
2022/04/20 00:02:13;;;;;;;7.70;5.55;;;14.20;99.90;;;;;;1040135;28;20016;-69
2022/04/20 00:02:43;;;;;;;5.73;4.47;;;14.10;99.90;;;;;;1039653;28;20052;-69
2022/04/20 00:03:14;;;;;;;8.63;5.70;;;14.10;99.90;;;;;;1039861;28;20010;-68
2022/04/20 00:03:45;;;;;;;7.57;5.27;;;14.10;99.90;;;;;;1039416;28;20485;-70
2022/04/20 00:04:15;;;;;;;5.40;4.90;;;14.10;99.90;;;;;;1035625;28;20432;-70
2022/04/20 00:04:46;;;;;;;5.40;4.73;;;14.10;99.90;;;;;;1035850;28;20010;-70
2022/04/20 00:05:16;;;;;;;6.03;4.80;;;14.10;99.90;;;;;;1035737;28;20552;-70
2022/04/20 00:05:47;;;;;;;6.47;5.60;;;14.10;99.90;;;;;;1033448;28;20006;-69
2022/04/20 00:06:18;;;;;;;5.67;4.67;;;14.10;99.90;;;;;;1039830;28;20437;-70
2022/04/20 00:06:48;;;;;;;6.93;4.93;;;14.10;99.90;;;;;;1039624;28;20052;-69
2022/04/20 00:07:19;;;;;;;6.37;5.77;;;14.10;99.90;;;;;;1040121;28;20013;-68
2022/04/20 00:07:49;;;;;;;7.87;5.83;;;14.10;99.90;;;;;;1035838;28;20489;-69
2022/04/20 00:08:20;;;;;;;8.07;5.40;;;14.10;99.90;;;;;;1035902;28;20044;-69
2022/04/20 00:08:50;;;;;;;6.53;5.10;;;14.10;99.90;;;;;;1039695;28;20036;-70
2022/04/20 00:09:21;;;;;;;5.80;5.00;;;14.10;99.90;;;;;;1039893;28;20508;-69
2022/04/20 00:09:51;;;;;;;6.40;5.00;;;14.10;99.90;;;;;;1036269;28;20488;-69
2022/04/20 00:10:22;;;;;;;6.00;4.93;;;14.10;99.90;;;;;;1035800;28;20038;-68
2022/04/20 00:10:52;;;;;;;6.20;5.37;;;14.10;99.90;;;;;;1035614;28;20014;-69
2022/04/20 00:11:23;;;;;;;6.40;5.00;;;14.00;99.90;;;;;;1039772;28;20022;-70
2022/04/20 00:11:53;;;;;;;7.67;5.50;;;14.00;99.90;;;;;;1035820;28;20140;-68
2022/04/20 00:12:24;;;;;;;5.90;5.30;;;14.00;99.90;;;;;;1036066;28;20385;-67
2022/04/20 00:12:55;;;;;;;6.00;5.37;;;14.00;99.90;;;;;;1035737;28;20018;-68
2022/04/20 00:13:25;;;;;;;6.57;4.87;;;14.00;99.90;;;;;;1035341;28;20093;-68
2022/04/20 00:13:56;;;;;;;5.87;4.87;;;14.00;99.90;;;;;;1035752;28;20518;-68
2022/04/20 00:14:26;;;;;;;7.17;4.97;;;14.00;99.90;;;;;;1035463;28;20377;-68
2022/04/20 00:14:57;;;;;;;5.70;4.60;;;14.00;99.90;;;;;;1036237;28;20014;-69
2022/04/20 00:15:27;;;;;;;7.20;4.40;;;14.00;99.90;;;;;;1035440;28;20017;-69
2022/04/20 00:15:58;;;;;;;5.43;4.73;;;14.00;99.90;;;;;;1035828;28;20465;-69
2022/04/20 00:16:29;;;;;;;6.88;4.72;;;14.00;99.90;;;;;;1035350;28;20021;-69
2022/04/20 00:16:59;;;;;;;7.30;5.07;;;14.00;99.90;;;;;;1035834;28;20025;-69
2022/04/20 00:17:30;;;;;;;5.67;4.87;;;14.10;99.90;;;;;;1039737;28;20037;-71
2022/04/20 00:18:01;;;;;;;6.23;4.60;;;14.00;99.90;;;;;;1039811;28;20152;-69
2022/04/20 00:18:31;;;;;;;5.87;4.60;;;14.00;99.90;;;;;;1039603;28;20170;-67
2022/04/20 00:19:02;;;;;;;5.60;4.53;;;14.00;99.90;;;;;;1039879;28;20517;-69
2022/04/20 00:19:32;;;;;;;7.10;4.70;;;14.00;99.90;;;;;;1039683;28;20029;-68
2022/04/20 00:20:04;;;;;;;5.93;5.33;;;14.00;99.90;;;;;;1039700;28;20036;-69
2022/04/20 00:20:34;;;;;;;6.47;4.65;;;14.00;99.90;;;;;;1039759;28;20624;-70
2022/04/20 00:21:05;;;;;;;6.00;4.93;;;14.00;99.90;;;;;;1039690;28;20570;-68
2022/04/20 00:21:35;;;;;;;6.63;5.10;;;14.00;99.90;;;;;;1039515;28;20045;-69
2022/04/20 00:22:06;;;;;;;5.87;4.87;;;14.00;99.90;;;;;;1040059;28;20025;-69
2022/04/20 00:22:37;;;;;;;6.63;5.10;;;14.00;99.90;;;;;;1040074;28;20014;-70
2022/04/20 00:23:07;;;;;;;6.67;4.90;;;14.00;99.90;;;;;;1039524;28;20017;-70
2022/04/20 00:23:38;;;;;;;6.83;5.27;;;14.00;99.90;;;;;;1039804;28;20020;-68
2022/04/20 00:24:08;;;;;;;5.83;4.77;;;14.00;99.90;;;;;;1039732;28;20100;-69
2022/04/20 00:24:39;;;;;;;5.67;4.87;;;14.00;99.90;;;;;;1039564;28;20075;-70
2022/04/20 00:25:10;;;;;;;6.97;5.17;;;14.00;99.90;;;;;;1039645;28;20018;-69
2022/04/20 00:25:40;;;;;;;8.07;5.90;;;14.00;99.90;;;;;;1039651;28;20013;-70
2022/04/20 00:26:11;;;;;;;7.40;5.13;;;14.00;99.90;;;;;;1039563;28;20260;-69
2022/04/20 00:26:41;;;;;;;6.23;5.10;;;14.00;99.90;;;;;;1039624;28;20049;-69
2022/04/20 00:27:12;;;;;;;5.57;4.43;;;14.00;99.90;;;;;;1035523;28;20105;-68
2022/04/20 00:27:42;;;;;;;5.03;4.53;;;13.90;99.90;;;;;;1035358;28;20022;-68
2022/04/20 00:28:13;;;;;;;6.33;4.93;;;13.90;99.90;;;;;;1035585;28;20018;-69
2022/04/20 00:28:43;;;;;;;5.93;4.67;;;13.90;99.90;;;;;;1035652;28;20125;-69
2022/04/20 00:29:14;;;;;;;6.50;4.90;;;13.90;99.90;;;;;;1035664;28;20018;-69
2022/04/20 00:29:44;;;;;;;5.73;4.70;;;13.90;99.90;;;;;;1035841;28;20014;-69
2022/04/20 00:30:15;;;;;;;10.13;4.27;;;13.90;99.90;;;;;;1039609;28;20480;-70
2022/04/20 00:30:45;;;;;;;6.43;5.20;;;13.90;99.90;;;;;;1039567;28;20397;-69
2022/04/20 00:31:16;;;;;;;8.17;5.23;;;13.90;99.90;;;;;;1039661;28;20079;-70
2022/04/20 00:31:47;;;;;;;6.00;5.13;;;13.90;99.90;;;;;;1039590;28;20018;-70
2022/04/20 00:32:17;;;;;;;6.63;5.03;;;13.90;99.90;;;;;;1038922;28;20026;-70
2022/04/20 00:32:47;;;;;;;6.13;4.50;;;13.90;99.90;;;;;;1039641;28;20236;-70
2022/04/20 00:33:18;;;;;;;5.83;4.30;;;13.90;99.90;;;;;;1039509;28;20074;-69
2022/04/20 00:33:48;;;;;;;5.63;5.00;;;13.90;99.90;;;;;;1039709;28;20018;-70
2022/04/20 00:34:19;;;;;;;6.67;4.73;;;13.90;99.90;;;;;;1039485;28;20116;-69
2022/04/20 00:34:50;;;;;;;6.20;5.33;;;13.80;99.90;;;;;;1039804;28;20025;-69
2022/04/20 00:35:20;;;;;;;5.73;4.57;;;13.80;99.90;;;;;;1039646;28;20025;-69
2022/04/20 00:35:51;;;;;;;6.00;4.83;;;13.80;99.90;;;;;;1039708;28;20022;-69
2022/04/20 00:36:22;;;;;;;7.20;4.90;;;13.80;99.90;;;;;;1040040;28;20017;-69
2022/04/20 00:36:53;;;;;;;5.20;4.30;;;13.80;99.90;;;;;;1039767;28;20048;-69
2022/04/20 00:37:24;;;;;;;5.97;4.95;;;13.80;99.90;;;;;;1040028;28;20029;-68
2022/04/20 00:37:54;;;;;;;6.63;5.00;;;13.80;99.90;;;;;;1039919;28;20057;-69
2022/04/20 00:38:25;;;;;;;7.07;4.83;;;13.80;99.90;;;;;;1039847;28;20556;-68
2022/04/20 00:38:56;;;;;;;7.80;5.20;;;13.80;99.90;;;;;;1039968;28;20048;-70
2022/04/20 00:39:26;;;;;;;7.17;4.73;;;13.80;99.90;;;;;;1039528;28;20021;-69
2022/04/20 00:39:57;;;;;;;8.63;5.23;;;13.80;99.90;;;;;;1039679;28;20096;-70
2022/04/20 00:40:27;;;;;;;6.57;5.47;;;13.80;99.90;;;;;;1039634;28;20537;-69
2022/04/20 00:40:58;;;;;;;8.17;5.13;;;13.80;99.90;;;;;;1039482;28;20362;-69
2022/04/20 00:41:28;;;;;;;7.40;5.20;;;13.80;99.90;;;;;;1039919;28;20104;-69
2022/04/20 00:41:59;;;;;;;10.10;6.17;;;13.80;99.90;;;;;;1040075;28;20021;-69
2022/04/20 00:42:32;;;;;;;6.30;4.80;;;13.80;99.90;;;;;;1039522;28;20179;-69
2022/04/20 00:43:03;;;;;;;7.32;5.25;;;13.80;99.90;;;;;;1039768;28;20115;-69
2022/04/20 00:43:34;;;;;;;6.72;5.63;;;13.80;99.90;;;;;;1039443;28;20087;-68
2022/04/20 00:44:05;;;;;;;8.73;5.67;;;13.70;99.90;;;;;;1035401;28;20034;-68
2022/04/20 00:44:35;;;;;;;6.13;5.20;;;13.70;99.90;;;;;;1035482;28;20025;-69
2022/04/20 00:45:08;;;;;;;8.23;5.97;;;13.70;99.90;;;;;;1035545;28;20104;-69
2022/04/20 00:45:42;;;;;;;6.85;5.05;;;13.70;99.90;;;;;;1035789;28;20010;-69
2022/04/20 00:46:12;;;;;;;7.00;5.15;;;13.70;99.90;;;;;;1035431;28;20030;-69
2022/04/20 00:46:46;;;;;;;7.37;5.37;;;13.70;99.90;;;;;;1035592;28;20022;-70
2022/04/20 00:47:17;;;;;;;6.90;5.55;;;13.70;99.90;;;;;;1036378;28;20010;-68
2022/04/20 00:47:49;;;;;;;8.25;4.97;;;13.70;99.90;;;;;;1039521;28;20021;-68
2022/04/20 00:48:22;;;;;;;6.32;4.82;;;13.70;99.90;;;;;;1039889;28;20109;-68
2022/04/20 00:48:53;;;;;;;6.55;5.07;;;13.70;99.90;;;;;;1039533;28;20014;-68
2022/04/20 00:49:25;;;;;;;6.13;4.95;;;13.70;99.90;;;;;;1039483;28;20228;-66
2022/04/20 00:49:57;;;;;;;8.60;5.97;;;13.70;99.90;;;;;;1039654;28;20025;-70
2022/04/20 00:50:27;;;;;;;5.60;4.68;;;13.70;99.90;;;;;;1039469;28;20105;-69
2022/04/20 00:50:58;;;;;;;7.07;4.73;;;13.70;99.90;;;;;;1035915;28;20028;-71
2022/04/20 00:51:31;;;;;;;8.13;5.33;;;13.70;99.90;;;;;;1039442;28;20029;-69
2022/04/20 00:52:03;;;;;;;8.00;5.25;;;13.70;99.90;;;;;;1039662;28;20030;-69
2022/04/20 00:52:34;;;;;;;6.13;4.60;;;13.70;99.90;;;;;;1036071;28;20083;-69
2022/04/20 00:53:05;;;;;;;8.87;5.50;;;13.70;99.90;;;;;;1039626;28;20056;-69
2022/04/20 00:53:35;;;;;;;5.23;4.73;;;13.70;99.90;;;;;;1039002;28;20064;-68
2022/04/20 00:54:06;;;;;;;5.97;5.07;;;13.70;99.90;;;;;;1039546;28;20105;-70
2022/04/20 00:54:36;;;;;;;6.27;5.27;;;13.70;99.90;;;;;;1039704;28;20014;-69
2022/04/20 00:55:07;;;;;;;5.07;4.00;;;13.70;99.90;;;;;;1039958;28;20636;-70
2022/04/20 00:55:38;;;;;;;5.93;4.90;;;13.70;99.90;;;;;;1039730;28;20028;-70
2022/04/20 00:56:08;;;;;;;5.97;5.10;;;13.70;99.90;;;;;;1039814;28;20418;-70
2022/04/20 00:56:39;;;;;;;6.50;5.20;;;13.70;99.90;;;;;;1039867;28;20018;-69
2022/04/20 00:57:12;;;;;;;6.23;4.77;;;13.70;99.90;;;;;;1039961;28;20026;-70
2022/04/20 00:57:43;;;;;;;7.15;4.80;;;13.70;99.90;;;;;;1039879;28;20019;-70
2022/04/20 00:58:13;;;;;;;7.40;5.33;;;13.70;99.90;;;;;;1040010;28;20041;-70
2022/04/20 00:58:44;;;;;;;7.27;5.17;;;13.70;99.90;;;;;;1039381;28;20540;-68
2022/04/20 00:59:18;;;;;;;6.07;5.20;;;13.70;99.90;;;;;;1039763;28;20049;-69
2022/04/20 00:59:50;;;;;;;6.13;4.53;;;13.70;99.90;;;;;;1039668;28;20020;-69
2022/04/20 01:00:21;;;;;;;5.82;4.80;;;13.70;99.90;;;;;;1039872;28;20013;-70
2022/04/20 01:00:51;;;;;;;6.83;5.80;;;13.70;99.90;;;;;;1039387;28;20086;-70
2022/04/20 01:01:22;;;;;;;5.50;4.40;;;13.70;99.90;;;;;;1039586;28;20021;-71
2022/04/20 01:01:53;;;;;;;7.33;6.07;;;13.70;99.90;;;;;;1039232;28;20013;-69
2022/04/20 01:02:24;;;;;;;7.38;5.05;;;13.60;99.90;;;;;;1039601;28;20025;-68
2022/04/20 01:02:54;;;;;;;6.33;5.37;;;13.60;99.90;;;;;;1039390;28;20651;-70
2022/04/20 01:03:25;;;;;;;6.20;4.57;;;13.70;99.90;;;;;;1039383;28;20072;-69
2022/04/20 01:03:56;;;;;;;7.73;5.00;;;13.60;99.90;;;;;;1039617;28;20104;-69
2022/04/20 01:04:27;;;;;;;7.10;5.85;;;13.60;99.90;;;;;;1039504;28;20017;-70
2022/04/20 01:04:58;;;;;;;6.13;5.32;;;13.60;99.90;;;;;;1039581;28;20396;-70
2022/04/20 01:05:28;;;;;;;6.37;5.40;;;13.60;99.90;;;;;;1039934;28;20585;-70
2022/04/20 01:05:59;;;;;;;7.03;5.60;;;13.60;99.90;;;;;;1040256;28;20112;-70
2022/04/20 01:06:29;;;;;;;7.40;6.13;;;13.60;99.90;;;;;;1039489;28;20033;-70
2022/04/20 01:07:12;;;;;;;5.30;4.67;;;13.60;99.90;;;;;;1035506;28;20014;-69
2022/04/20 01:07:42;;;;;;;5.68;4.88;;;13.60;99.90;;;;;;1037109;28;20014;-69
2022/04/20 01:08:13;;;;;;;6.10;4.80;;;13.60;99.90;;;;;;1039568;28;20009;-69
2022/04/20 01:08:44;;;;;;;5.33;4.20;;;13.60;99.90;;;;;;1039629;28;20390;-72
2022/04/20 01:09:15;;;;;;;7.35;5.30;;;13.60;99.90;;;;;;1039871;28;20052;-69
2022/04/20 01:09:46;;;;;;;5.38;4.60;;;13.60;99.90;;;;;;1039736;28;20025;-70
2022/04/20 01:10:16;;;;;;;6.63;5.70;;;13.60;99.90;;;;;;1039430;28;20045;-69
2022/04/20 01:10:47;;;;;;;6.43;4.63;;;13.50;99.90;;;;;;1039570;28;20017;-69
2022/04/20 01:11:17;;;;;;;6.57;4.73;;;13.50;99.90;;;;;;1039395;28;20009;-69
2022/04/20 01:11:51;;;;;;;7.30;5.27;;;13.50;99.90;;;;;;1039488;28;20527;-70
2022/04/20 01:12:21;;;;;;;7.30;4.75;;;13.50;99.90;;;;;;1039593;28;20132;-70
2022/04/20 01:12:52;;;;;;;6.57;5.27;;;13.50;99.90;;;;;;1039448;28;20137;-70
2022/04/20 01:13:23;;;;;;;6.43;5.10;;;13.50;99.90;;;;;;1039572;28;20405;-69
2022/04/20 01:13:54;;;;;;;9.68;5.55;;;13.50;99.90;;;;;;1039540;28;20013;-69
2022/04/20 01:14:25;;;;;;;7.07;5.07;;;13.50;99.90;;;;;;1039303;28;20009;-69
2022/04/20 01:14:55;;;;;;;6.93;4.93;;;13.50;99.90;;;;;;1035767;28;20033;-70
2022/04/20 01:15:26;;;;;;;5.93;5.17;;;13.50;99.90;;;;;;1039331;28;20021;-70
2022/04/20 01:15:57;;;;;;;6.57;4.95;;;13.50;99.90;;;;;;1039561;28;20030;-70
2022/04/20 01:16:28;;;;;;;6.10;4.70;;;13.50;99.90;;;;;;1039389;28;20033;-69
2022/04/20 01:16:58;;;;;;;6.83;4.87;;;13.50;99.90;;;;;;1039848;28;20112;-68
2022/04/20 01:17:29;;;;;;;6.63;4.93;;;13.40;99.90;;;;;;1039709;28;20016;-70
2022/04/20 01:17:59;;;;;;;6.00;4.87;;;13.40;99.90;;;;;;1039644;28;20403;-68
2022/04/20 01:18:30;;;;;;;5.93;4.40;;;13.50;99.90;;;;;;1039156;28;20009;-67
2022/04/20 01:19:01;;;;;;;6.23;5.30;;;13.40;99.90;;;;;;1039719;28;20580;-69
2022/04/20 01:19:39;;;;;;;5.97;4.95;;;13.40;99.90;;;;;;1039135;28;20108;-69
2022/04/20 01:20:14;;;;;;;6.65;4.82;;;13.40;99.90;;;;;;1039690;28;20045;-70
2022/04/20 01:20:45;;;;;;;5.70;4.65;;;13.40;99.90;;;;;;1039334;28;20016;-69
2022/04/20 01:21:16;;;;;;;5.57;4.53;;;13.40;99.90;;;;;;1039665;28;20021;-69
2022/04/20 01:21:47;;;;;;;6.47;5.45;;;13.40;99.90;;;;;;1039639;28;20057;-68
2022/04/20 01:22:17;;;;;;;8.27;5.10;;;13.40;99.90;;;;;;1039458;28;20025;-68
2022/04/20 01:22:48;;;;;;;5.93;5.07;;;13.40;99.90;;;;;;1039425;28;20045;-70
2022/04/20 01:23:18;;;;;;;5.47;4.70;;;13.40;99.90;;;;;;1039633;28;20096;-68
2022/04/20 01:23:50;;;;;;;6.17;5.00;;;13.40;99.90;;;;;;1039324;28;20093;-70
2022/04/20 01:24:20;;;;;;;7.13;4.93;;;13.40;99.90;;;;;;1040029;28;20017;-69
2022/04/20 01:24:51;;;;;;;5.77;5.17;;;13.40;99.90;;;;;;1039561;28;20033;-69
2022/04/20 01:25:21;;;;;;;7.77;5.13;;;13.40;99.90;;;;;;1039989;28;20021;-70
2022/04/20 01:25:52;;;;;;;9.23;5.20;;;13.40;99.90;;;;;;1039624;28;20021;-68
2022/04/20 01:26:22;;;;;;;6.17;5.07;;;13.30;99.90;;;;;;1039961;28;20515;-69
2022/04/20 01:26:53;;;;;;;7.47;4.90;;;13.30;99.90;;;;;;1039677;28;20436;-69
2022/04/20 01:27:24;;;;;;;6.07;4.50;;;13.30;99.90;;;;;;1039843;28;20465;-69
2022/04/20 01:27:55;;;;;;;6.80;5.57;;;13.30;99.90;;;;;;1039762;28;20027;-68
2022/04/20 01:28:25;;;;;;;5.53;4.60;;;13.30;99.90;;;;;;1039604;28;20028;-69
2022/04/20 01:28:58;;;;;;;5.83;4.73;;;13.30;99.90;;;;;;1039347;28;20025;-68
2022/04/20 01:29:29;;;;;;;6.47;4.75;;;13.30;99.90;;;;;;1039407;28;20017;-70
2022/04/20 01:30:00;;;;;;;5.38;4.70;;;13.30;99.90;;;;;;1039447;28;20473;-69
2022/04/20 01:30:31;;;;;;;6.93;5.33;;;13.30;99.90;;;;;;1039465;28;20492;-68
2022/04/20 01:31:02;;;;;;;7.97;4.97;;;13.30;99.90;;;;;;1039513;28;20549;-68
2022/04/20 01:31:32;;;;;;;6.75;5.60;;;13.30;99.90;;;;;;1039390;28;20071;-68
2022/04/20 01:32:03;;;;;;;6.17;4.60;;;13.30;99.90;;;;;;1039447;28;20390;-69
2022/04/20 01:32:35;;;;;;;6.47;4.90;;;13.30;99.90;;;;;;1039382;28;20022;-69
2022/04/20 01:33:05;;;;;;;5.45;4.85;;;13.30;99.90;;;;;;1039588;28;20032;-69
2022/04/20 01:33:36;;;;;;;6.30;5.03;;;13.30;99.90;;;;;;1039093;28;20056;-69
2022/04/20 01:34:06;;;;;;;5.43;4.80;;;13.30;99.90;;;;;;1039592;28;20025;-69
2022/04/20 01:34:37;;;;;;;5.90;5.10;;;13.30;99.90;;;;;;1039267;28;20037;-68
2022/04/20 01:35:08;;;;;;;7.23;5.17;;;13.30;99.90;;;;;;1039533;28;20104;-69
2022/04/20 01:35:39;;;;;;;6.75;5.07;;;13.30;99.90;;;;;;1039305;28;20038;-71
2022/04/20 01:36:10;;;;;;;6.43;4.60;;;13.30;99.90;;;;;;1039533;28;20025;-68
2022/04/20 01:36:41;;;;;;;6.72;5.38;;;13.30;99.90;;;;;;1039089;28;20032;-68
2022/04/20 01:37:12;;;;;;;7.13;4.57;;;13.30;99.90;;;;;;1039515;28;20108;-69
2022/04/20 01:37:42;;;;;;;6.63;4.80;;;13.30;99.90;;;;;;1039165;28;20834;-69
2022/04/20 01:38:13;;;;;;;8.13;4.70;;;13.30;99.90;;;;;;1039566;28;20404;-69
2022/04/20 01:38:43;;;;;;;6.43;4.80;;;13.30;99.90;;;;;;1039242;28;20686;-69
2022/04/20 01:39:15;;;;;;;6.67;5.23;;;13.30;99.90;;;;;;1039578;28;20110;-68
2022/04/20 01:39:45;;;;;;;5.25;4.53;;;13.30;99.90;;;;;;1039195;28;20001;-70
2022/04/20 01:40:16;;;;;;;5.20;4.70;;;13.30;99.90;;;;;;1039615;28;20024;-70
2022/04/20 01:40:46;;;;;;;5.73;4.77;;;13.30;99.90;;;;;;1039452;28;20009;-69
2022/04/20 01:41:17;;;;;;;6.70;5.27;;;13.30;99.90;;;;;;1039868;28;20017;-68
2022/04/20 01:41:47;;;;;;;6.03;4.37;;;13.30;99.90;;;;;;1039143;28;20500;-70
2022/04/20 01:42:18;;;;;;;6.93;4.80;;;13.30;99.90;;;;;;1039639;28;20443;-68
2022/04/20 01:42:49;;;;;;;6.50;4.47;;;13.30;99.90;;;;;;1039278;28;20345;-70
2022/04/20 01:43:19;;;;;;;6.30;5.50;;;13.30;99.90;;;;;;1039617;28;20465;-70
2022/04/20 01:43:50;;;;;;;5.87;5.00;;;13.30;99.90;;;;;;1039102;28;20010;-68
2022/04/20 01:44:20;;;;;;;6.33;4.97;;;13.30;99.90;;;;;;1039563;28;20551;-67
2022/04/20 01:44:51;;;;;;;6.63;4.83;;;13.30;99.90;;;;;;1039178;28;20373;-70
2022/04/20 01:45:22;;;;;;;6.68;4.75;;;13.30;99.90;;;;;;1039663;28;20068;-72
2022/04/20 01:45:52;;;;;;;5.57;4.63;;;13.20;99.90;;;;;;1039100;28;20099;-69
2022/04/20 01:46:23;;;;;;;6.17;4.30;;;13.20;99.90;;;;;;1039580;28;20013;-69
2022/04/20 01:46:54;;;;;;;7.35;4.85;;;13.20;99.90;;;;;;1039302;28;20018;-69
2022/04/20 01:47:26;;;;;;;6.00;4.87;;;13.20;99.90;;;;;;1035501;28;20045;-68
2022/04/20 01:47:57;;;;;;;5.82;4.97;;;13.20;99.90;;;;;;1039527;28;20607;-71
2022/04/20 01:48:27;;;;;;;6.10;4.80;;;13.20;99.90;;;;;;1039452;28;20014;-69
2022/04/20 01:48:59;;;;;;;6.30;4.43;;;13.20;99.90;;;;;;1039314;28;20108;-69
2022/04/20 01:49:30;;;;;;;5.03;4.07;;;13.20;99.90;;;;;;1039447;28;20024;-69
2022/04/20 01:50:00;;;;;;;6.43;4.93;;;13.20;99.90;;;;;;1039383;28;20088;-69
2022/04/20 01:50:31;;;;;;;5.73;4.60;;;13.20;99.90;;;;;;1039804;28;20014;-70
2022/04/20 01:51:51;;;;;;;5.35;4.35;;;13.20;99.90;;;;;;1039473;28;20045;-70
2022/04/20 01:52:21;;;;;;;6.57;4.37;;;13.20;99.90;;;;;;1039801;28;20376;-70
2022/04/20 01:52:52;;;;;;;5.80;5.17;;;13.20;99.90;;;;;;1039154;28;20017;-70
2022/04/20 01:53:23;;;;;;;7.10;4.73;;;13.20;99.90;;;;;;1039549;28;20026;-71
2022/04/20 01:53:56;;;;;;;6.43;4.75;;;13.20;99.90;;;;;;1039327;28;20569;-70
2022/04/20 01:54:26;;;;;;;5.55;4.57;;;13.10;99.90;;;;;;1039158;28;20020;-68
2022/04/20 01:54:58;;;;;;;5.87;4.47;;;13.20;99.90;;;;;;1039764;28;20029;-71
2022/04/20 01:55:28;;;;;;;5.45;4.10;;;13.10;99.90;;;;;;1039724;28;20020;-71
2022/04/20 01:56:00;;;;;;;6.93;4.87;;;13.10;99.90;;;;;;1039354;28;20021;-71
2022/04/20 01:56:30;;;;;;;5.82;4.57;;;13.10;99.90;;;;;;1039470;28;20079;-71
2022/04/20 01:57:01;;;;;;;7.30;4.47;;;13.10;99.90;;;;;;1039291;28;20029;-70
2022/04/20 01:57:33;;;;;;;5.73;4.27;;;13.10;99.90;;;;;;1039135;28;20464;-71
2022/04/20 01:58:03;;;;;;;5.20;4.22;;;13.10;99.90;;;;;;1035469;28;20056;-70
2022/04/20 01:58:37;;;;;;;6.03;4.63;;;13.10;99.90;;;;;;1035153;28;20076;-71
2022/04/20 01:59:09;;;;;;;5.22;4.38;;;13.10;99.90;;;;;;1035328;28;20026;-70
2022/04/20 01:59:39;;;;;;;6.15;4.97;;;13.10;99.90;;;;;;1031791;28;20022;-69
2022/04/20 02:00:11;;;;;;;5.83;4.10;;;13.10;99.90;;;;;;1036029;28;20026;-71
2022/04/20 02:00:42;;;;;;;6.80;4.65;;;13.10;99.90;;;;;;1039352;28;20028;-71
2022/04/20 02:02:50;;;;;;;5.50;4.30;;;13.10;99.90;;;;;;1042317;28;20616;-71
2022/04/20 02:03:21;;;;;;;5.77;4.80;;;13.10;99.90;;;;;;1039754;28;20626;-69
2022/04/20 02:03:51;;;;;;;6.43;4.53;;;13.10;99.90;;;;;;1039019;28;20507;-70
2022/04/20 02:04:22;;;;;;;6.23;4.50;;;13.10;99.90;;;;;;1039284;28;20057;-70
2022/04/20 02:04:53;;;;;;;6.10;4.90;;;13.10;99.90;;;;;;1034904;28;20454;-71
2022/04/20 02:05:24;;;;;;;6.25;4.63;;;13.10;99.90;;;;;;1035098;28;20050;-68
2022/04/20 02:05:54;;;;;;;5.67;4.73;;;13.00;99.90;;;;;;1038959;28;20018;-72
2022/04/20 02:06:25;;;;;;;5.77;4.47;;;13.00;99.90;;;;;;1039597;28;20100;-69
2022/04/20 02:06:56;;;;;;;6.17;4.23;;;13.00;99.90;;;;;;1039068;28;20017;-69
2022/04/20 02:07:26;;;;;;;6.07;4.22;;;13.00;99.90;;;;;;1039485;28;20021;-69
2022/04/20 02:07:57;;;;;;;7.13;4.60;;;13.00;99.90;;;;;;1039170;28;20025;-69
2022/04/20 02:08:27;;;;;;;4.53;4.00;;;13.00;99.90;;;;;;1039626;28;20018;-71
2022/04/20 02:08:58;;;;;;;6.13;5.37;;;13.00;99.90;;;;;;1039304;28;20448;-71
2022/04/20 02:09:28;;;;;;;5.23;4.20;;;13.00;99.90;;;;;;1039453;28;20535;-70
2022/04/20 02:09:59;;;;;;;5.50;4.07;;;13.00;99.90;;;;;;1039241;28;20047;-71
2022/04/20 02:10:30;;;;;;;4.70;4.03;;;13.00;99.90;;;;;;1039518;28;20024;-71
2022/04/20 02:11:01;;;;;;;6.17;4.40;;;13.00;99.90;;;;;;1035280;28;20026;-71
2022/04/20 02:11:31;;;;;;;5.20;4.20;;;13.00;99.90;;;;;;1035599;28;20021;-70
2022/04/20 02:12:02;;;;;;;4.87;3.77;;;13.00;99.90;;;;;;1035458;28;20033;-70
2022/04/20 02:12:33;;;;;;;5.30;3.93;;;13.00;99.90;;;;;;1035179;28;20164;-70
2022/04/20 02:13:03;;;;;;;5.30;4.53;;;13.00;99.90;;;;;;1035403;28;20075;-71
2022/04/20 02:13:34;;;;;;;5.17;4.40;;;13.00;99.90;;;;;;1035403;28;20133;-70
2022/04/20 02:14:05;;;;;;;5.37;4.07;;;13.00;99.90;;;;;;1039384;28;20083;-70
2022/04/20 02:14:35;;;;;;;4.15;3.72;;;13.00;99.90;;;;;;1039241;28;20449;-69
2022/04/20 02:15:06;;;;;;;5.67;4.30;;;13.00;99.90;;;;;;1039689;28;20485;-71
2022/04/20 02:15:37;;;;;;;5.70;3.78;;;13.00;99.90;;;;;;1039083;28;20021;-71
2022/04/20 02:16:08;;;;;;;6.03;3.73;;;13.00;99.90;;;;;;1039480;28;20531;-69
2022/04/20 02:16:38;;;;;;;5.10;4.03;;;13.00;99.90;;;;;;1039234;28;20144;-71
2022/04/20 02:17:09;;;;;;;5.10;4.40;;;13.00;99.90;;;;;;1039395;28;20013;-70
2022/04/20 02:17:39;;;;;;;4.60;3.67;;;13.00;99.90;;;;;;1039526;28;20013;-70
2022/04/20 02:18:10;;;;;;;5.67;4.47;;;13.00;99.90;;;;;;1039749;28;20372;-70
2022/04/20 02:18:40;;;;;;;7.30;4.33;;;13.00;99.90;;;;;;1039627;28;20006;-69
2022/04/20 02:19:11;;;;;;;5.77;3.73;;;13.00;99.90;;;;;;1039807;28;20010;-69
2022/04/20 02:19:41;;;;;;;4.97;3.73;;;13.00;99.90;;;;;;1039564;28;20005;-71
2022/04/20 02:20:12;;;;;;;4.90;4.40;;;13.00;99.90;;;;;;1039736;28;20013;-70
2022/04/20 02:20:42;;;;;;;5.40;3.93;;;13.00;99.90;;;;;;1039162;28;20112;-69
2022/04/20 02:21:13;;;;;;;5.10;4.20;;;13.00;99.90;;;;;;1039444;28;20006;-69
2022/04/20 02:21:43;;;;;;;6.00;3.40;;;13.00;99.90;;;;;;1039039;28;20036;-69
2022/04/20 02:22:14;;;;;;;4.30;3.37;;;13.00;99.90;;;;;;1039380;28;20040;-68
2022/04/20 02:22:45;;;;;;;5.63;3.90;;;13.00;99.90;;;;;;1039016;28;20006;-69
2022/04/20 02:23:15;;;;;;;5.20;4.63;;;13.00;99.90;;;;;;1039467;28;20010;-69
2022/04/20 02:23:46;;;;;;;4.80;4.00;;;13.00;99.90;;;;;;1039143;28;20014;-68
2022/04/20 02:24:17;;;;;;;5.17;4.00;;;13.00;99.90;;;;;;1039582;28;20010;-69
2022/04/20 02:24:47;;;;;;;5.30;4.03;;;13.00;99.90;;;;;;1039067;28;20092;-69
2022/04/20 02:25:18;;;;;;;4.60;3.80;;;13.00;99.90;;;;;;1039476;28;20013;-69
2022/04/20 02:25:48;;;;;;;4.47;3.83;;;12.90;99.90;;;;;;1039129;28;20402;-69
2022/04/20 02:26:19;;;;;;;3.97;3.57;;;12.90;99.90;;;;;;1039482;28;20006;-69
2022/04/20 02:26:49;;;;;;;5.40;4.00;;;12.90;99.90;;;;;;1039062;28;20496;-70
2022/04/20 02:27:20;;;;;;;5.27;4.40;;;12.90;99.90;;;;;;1039481;28;20485;-69
2022/04/20 02:27:50;;;;;;;5.37;4.07;;;12.90;99.90;;;;;;1039033;28;20016;-69
2022/04/20 02:28:21;;;;;;;4.87;3.93;;;12.90;99.90;;;;;;1039478;28;20005;-70
2022/04/20 02:28:52;;;;;;;6.13;4.35;;;12.90;99.90;;;;;;1039175;28;20053;-69
2022/04/20 02:29:22;;;;;;;7.40;4.40;;;12.90;99.90;;;;;;1039334;28;20059;-70
2022/04/20 02:29:53;;;;;;;5.20;3.93;;;12.90;99.90;;;;;;1039300;28;20049;-69
2022/04/20 02:30:24;;;;;;;6.47;4.27;;;12.90;99.90;;;;;;1039256;28;20025;-68
2022/04/20 02:30:54;;;;;;;6.30;4.10;;;12.90;99.90;;;;;;1039299;28;20056;-67
2022/04/20 02:31:25;;;;;;;5.90;3.93;;;12.80;99.90;;;;;;1039540;28;20009;-67
2022/04/20 02:31:56;;;;;;;6.10;3.93;;;12.80;99.90;;;;;;1039548;28;20014;-68
2022/04/20 02:32:26;;;;;;;5.38;4.38;;;12.80;99.90;;;;;;1039064;28;20022;-70
2022/04/20 02:32:57;;;;;;;4.40;3.50;;;12.80;99.90;;;;;;1035110;28;20011;-68
2022/04/20 02:33:27;;;;;;;5.13;4.17;;;12.80;99.90;;;;;;1035031;28;20671;-68
2022/04/20 02:33:58;;;;;;;5.97;4.17;;;12.80;99.90;;;;;;1035424;28;20642;-69
2022/04/20 02:34:28;;;;;;;4.10;3.70;;;12.80;99.90;;;;;;1035124;28;20117;-68
2022/04/20 02:34:59;;;;;;;4.77;3.40;;;12.80;99.90;;;;;;1039183;28;20143;-68
2022/04/20 02:35:31;;;;;;;5.07;3.83;;;12.80;99.90;;;;;;1039254;28;20104;-69
2022/04/20 02:36:01;;;;;;;4.68;3.80;;;12.80;99.90;;;;;;1039421;28;20425;-69
2022/04/20 02:36:32;;;;;;;4.67;3.50;;;12.80;99.90;;;;;;1039504;28;20433;-69
2022/04/20 02:37:04;;;;;;;4.77;3.80;;;12.80;99.90;;;;;;1039268;28;20081;-69
2022/04/20 02:37:36;;;;;;;4.60;4.13;;;12.80;99.90;;;;;;1039185;28;20423;-68
2022/04/20 02:38:10;;;;;;;4.57;4.05;;;12.80;99.90;;;;;;1039263;28;20085;-70
2022/04/20 02:38:40;;;;;;;6.28;4.28;;;12.80;99.90;;;;;;1039230;28;20022;-68
2022/04/20 02:39:11;;;;;;;5.87;3.90;;;12.80;99.90;;;;;;1039425;28;20053;-69
2022/04/20 02:39:44;;;;;;;6.10;3.83;;;12.80;99.90;;;;;;1039368;28;20013;-69
2022/04/20 02:40:14;;;;;;;4.47;3.60;;;12.70;99.90;;;;;;1039364;28;20385;-68
2022/04/20 02:40:45;;;;;;;4.83;4.33;;;12.70;99.90;;;;;;1038911;28;20412;-69
2022/04/20 02:41:16;;;;;;;5.20;3.80;;;12.70;99.90;;;;;;1039414;28;20504;-68
2022/04/20 02:41:47;;;;;;;4.78;4.10;;;12.70;99.90;;;;;;1039083;28;20021;-69
2022/04/20 02:42:18;;;;;;;5.83;4.60;;;12.70;99.90;;;;;;1039308;28;20026;-69
2022/04/20 02:42:48;;;;;;;4.57;3.90;;;12.70;99.90;;;;;;1039097;28;20037;-68
2022/04/20 02:43:19;;;;;;;4.70;3.27;;;12.70;99.90;;;;;;1039054;28;20014;-68